Time;durP1;ratioP1;P1;durP2;ratioP2;P2;SDS_P1;SDS_P2;PMS_P1;PMS_P2;Temp;Humidity;BMP_temperature;BMP_pressure;BME280_temperature;BME280_humidity;BME280_pressure;Samples;Min_cycle;Max_cycle;Signal;HPM_P1;HPM_P2
2023/01/09 00:00:38;;;;;;;;;;;;;;;17.56;47.95;101490.53;5099612;28;1968;-48
2023/01/09 00:03:04;;;;;;;;;;;;;;;17.29;47.96;101502.34;5098997;28;1181;-50
2023/01/09 00:05:29;;;;;;;;;;;;;;;18.04;48.48;101496.91;5098213;28;1094;-48
2023/01/09 00:07:55;;;;;;;;;;;;;;;17.38;48.33;101495.31;5096694;28;2501;-43
2023/01/09 00:10:20;;;;;;;;;;;;;;;18.71;47.62;101494.47;5098366;28;1046;-48
2023/01/09 00:12:46;;;;;;;;;;;;;;;17.85;48.50;101499.25;5098543;28;1081;-49
2023/01/09 00:15:11;;;;;;;;;;;;;;;17.53;48.71;101502.88;5098873;28;1100;-44
2023/01/09 00:17:36;;;;;;;;;;;;;;;18.54;47.60;101496.63;5098129;28;1035;-49
2023/01/09 00:20:03;;;;;;;;;;;;;;;17.48;48.40;101491.81;5098988;28;1909;-46
2023/01/09 00:22:28;;;;;;;;;;;;;;;17.33;47.54;101481.50;5098774;28;1157;-46
2023/01/09 00:24:54;;;;;;;;;;;;;;;18.53;47.77;101486.72;5098304;28;1072;-46
2023/01/09 00:27:19;;;;;;;;;;;;;;;17.60;48.72;101491.66;5098689;28;1098;-46
2023/01/09 00:29:45;;;;;;;;;;;;;;;17.78;48.86;101494.00;5098141;28;1090;-45
2023/01/09 00:32:11;;;;;;;;;;;;;;;17.87;48.53;101493.50;5098101;28;1097;-46
2023/01/09 00:34:36;;;;;;;;;;;;;;;17.23;48.31;101486.94;5097504;28;1055;-45
2023/01/09 00:37:02;;;;;;;;;;;;;;;19.06;46.59;101490.19;5095824;28;2458;-43
2023/01/09 00:39:28;;;;;;;;;;;;;;;17.88;48.08;101482.22;5092466;28;1909;-45
2023/01/09 00:41:53;;;;;;;;;;;;;;;17.41;47.85;101480.22;5098326;28;1130;-45
2023/01/09 00:44:23;;;;;;;;;;;;;;;18.53;47.73;101481.22;5097477;28;999;-46
2023/01/09 00:46:50;;;;;;;;;;;;;;;17.56;48.26;101474.03;5098460;28;1054;-44
2023/01/09 00:49:16;;;;;;;;;;;;;;;17.16;47.57;101480.81;5096530;28;1071;-46
2023/01/09 00:51:41;;;;;;;;;;;;;;;18.51;47.54;101469.63;5096916;28;1212;-46
2023/01/09 00:54:07;;;;;;;;;;;;;;;17.52;48.08;101467.38;5097609;28;1077;-46
2023/01/09 00:56:33;;;;;;;;;;;;;;;17.61;48.80;101466.63;5097406;28;1037;-42
2023/01/09 00:58:59;;;;;;;;;;;;;;;17.91;48.33;101467.13;5097958;28;1918;-48
2023/01/09 01:01:24;;;;;;;;;;;;;;;17.30;48.20;101453.72;5097774;28;1174;-43
2023/01/09 01:03:49;;;;;;;;;;;;;;;17.64;48.65;101459.75;5097662;28;1269;-48
2023/01/09 01:08:59;;;;;;;;;;;;;;;17.24;47.86;101452.88;5095394;28;2545;-44
2023/01/09 01:11:24;;;;;;;;;;;;;;;18.12;48.12;101443.31;5097543;28;1015;-46
2023/01/09 01:13:50;;;;;;;;;;;;;;;17.55;48.42;101426.44;5096924;28;1204;-47
2023/01/09 01:16:17;;;;;;;;;;;;;;;17.49;48.70;101432.16;5097506;28;1059;-42
2023/01/09 01:18:42;;;;;;;;;;;;;;;18.47;47.14;101434.38;5096953;28;1969;-43
2023/01/09 01:21:08;;;;;;;;;;;;;;;17.48;48.31;101425.00;5097794;28;1111;-44
2023/01/09 01:23:34;;;;;;;;;;;;;;;17.22;48.12;101425.63;5097625;28;1095;-43
2023/01/09 01:26:03;;;;;;;;;;;;;;;17.88;48.11;101421.69;5097688;28;1035;-42
2023/01/09 01:28:28;;;;;;;;;;;;;;;17.34;49.25;101417.19;5097095;28;987;-43
2023/01/09 01:30:54;;;;;;;;;;;;;;;19.26;46.12;101419.63;5097316;28;1122;-47
2023/01/09 01:33:19;;;;;;;;;;;;;;;17.88;48.21;101415.34;5096795;28;1054;-46
2023/01/09 01:35:44;;;;;;;;;;;;;;;17.38;48.06;101407.34;5097426;28;994;-46
2023/01/09 01:38:10;;;;;;;;;;;;;;;18.50;47.68;101399.94;5088505;28;1839;-46
2023/01/09 01:40:37;;;;;;;;;;;;;;;17.56;48.32;101391.53;5097177;28;1988;-50
2023/01/09 01:43:02;;;;;;;;;;;;;;;17.43;48.95;101388.13;5096682;28;1180;-49
2023/01/09 01:45:28;;;;;;;;;;;;;;;17.72;48.70;101385.00;5096258;28;1139;-46
2023/01/09 01:48:00;;;;;;;;;;;;;;;17.49;48.57;101388.16;5096415;28;1118;-47
2023/01/09 01:50:27;;;;;;;;;;;;;;;19.27;45.96;101386.25;5096991;28;1142;-46
2023/01/09 01:52:55;;;;;;;;;;;;;;;17.81;48.33;101376.25;5096714;28;1102;-46
2023/01/09 01:55:21;;;;;;;;;;;;;;;17.51;47.48;101377.72;5096517;28;869;-45
2023/01/09 01:57:47;;;;;;;;;;;;;;;18.09;48.29;101389.63;5096456;28;1081;-47
2023/01/09 02:00:12;;;;;;;;;;;;;;;17.97;48.09;101374.44;5097124;28;1909;-45
2023/01/09 02:02:38;;;;;;;;;;;;;;;17.37;48.10;101380.13;5096436;28;1070;-45
2023/01/09 02:05:03;;;;;;;;;;;;;;;17.15;47.17;101371.97;5096848;28;1109;-46
2023/01/09 02:07:29;;;;;;;;;;;;;;;18.17;47.92;101369.00;5094162;28;1925;-48
2023/01/09 02:09:54;;;;;;;;;;;;;;;17.71;48.55;101366.88;5096816;28;1054;-49
2023/01/09 02:12:24;;;;;;;;;;;;;;;17.26;47.98;101369.06;5094876;28;1090;-48
2023/01/09 02:14:52;;;;;;;;;;;;;;;18.69;47.04;101364.47;5096750;28;1134;-48
2023/01/09 02:17:32;;;;;;;;;;;;;;;17.56;48.24;101355.78;5096116;28;1479;-47
2023/01/09 02:20:16;;;;;;;;;;;;;;;17.95;48.45;101359.03;5096086;28;1913;-47
2023/01/09 02:22:48;;;;;;;;;;;;;;;17.58;48.46;101362.63;5096918;28;1098;-49
2023/01/09 02:25:27;;;;;;;;;;;;;;;17.15;47.76;101358.22;5096278;28;1069;-47
2023/01/09 02:27:59;;;;;;;;;;;;;;;17.36;48.11;101364.69;5095632;28;1079;-47
2023/01/09 02:30:25;;;;;;;;;;;;;;;17.55;48.60;101357.69;5094589;28;1023;-44
2023/01/09 02:33:09;;;;;;;;;;;;;;;17.14;47.90;101364.81;5096784;28;1022;-45
2023/01/09 02:35:35;;;;;;;;;;;;;;;18.37;47.26;101354.50;5095901;28;1121;-48
2023/01/09 02:38:00;;;;;;;;;;;;;;;17.35;48.14;101363.88;5087184;28;2245;-49
2023/01/09 02:40:25;;;;;;;;;;;;;;;17.10;47.97;101351.59;5096087;28;1988;-50
2023/01/09 02:42:51;;;;;;;;;;;;;;;18.16;47.63;101355.50;5095531;28;1130;-46
2023/01/09 02:45:16;;;;;;;;;;;;;;;17.34;47.86;101362.22;5094940;28;1034;-49
2023/01/09 02:47:42;;;;;;;;;;;;;;;18.00;48.01;101349.94;5096284;28;1063;-45
2023/01/09 02:50:09;;;;;;;;;;;;;;;17.69;48.26;101355.28;5096208;28;1091;-50
2023/01/09 02:52:40;;;;;;;;;;;;;;;17.42;48.53;101358.16;5095960;28;1023;-48
2023/01/09 02:55:09;;;;;;;;;;;;;;;18.69;46.62;101358.97;5095611;28;1077;-48
2023/01/09 02:57:44;;;;;;;;;;;;;;;17.55;48.03;101346.69;5099527;28;1085;-49
2023/01/09 03:00:16;;;;;;;;;;;;;;;17.43;48.34;101348.81;5098737;28;1984;-48
2023/01/09 03:02:49;;;;;;;;;;;;;;;18.26;47.37;101345.38;5100040;28;1079;-49
2023/01/09 03:05:17;;;;;;;;;;;;;;;17.51;47.87;101342.00;5099311;28;1127;-48
2023/01/09 03:07:49;;;;;;;;;;;;;;;17.43;48.47;101341.41;5099421;28;2454;-46
2023/01/09 03:10:19;;;;;;;;;;;;;;;17.97;48.11;101353.25;5099500;28;1027;-46
2023/01/09 03:12:44;;;;;;;;;;;;;;;17.37;48.01;101353.44;5098815;28;1114;-47
2023/01/09 03:15:10;;;;;;;;;;;;;;;17.75;48.37;101354.22;5098381;28;1146;-46
2023/01/09 03:17:37;;;;;;;;;;;;;;;17.57;48.22;101349.16;5098443;28;1142;-48
2023/01/09 03:20:03;;;;;;;;;;;;;;;18.19;47.71;101350.31;5098185;28;1917;-48
2023/01/09 03:22:28;;;;;;;;;;;;;;;18.84;46.55;101349.03;5098506;28;999;-46
2023/01/09 03:24:54;;;;;;;;;;;;;;;17.62;48.04;101341.75;5099892;28;1206;-47
2023/01/09 03:27:19;;;;;;;;;;;;;;;17.29;47.69;101342.94;5099771;28;1035;-50
2023/01/09 03:29:45;;;;;;;;;;;;;;;17.24;47.33;101345.66;5099444;28;1077;-49
2023/01/09 03:32:10;;;;;;;;;;;;;;;18.31;47.46;101347.28;5094028;28;847;-44
2023/01/09 03:34:36;;;;;;;;;;;;;;;17.38;48.39;101352.34;5099369;28;1206;-48
2023/01/09 03:37:03;;;;;;;;;;;;;;;17.53;48.59;101348.03;5096828;28;2293;-45
2023/01/09 03:39:29;;;;;;;;;;;;;;;17.77;48.28;101349.28;5093278;28;1909;-45
2023/01/09 03:41:54;;;;;;;;;;;;;;;17.26;47.88;101340.72;5098908;28;1097;-47
2023/01/09 03:44:20;;;;;;;;;;;;;;;18.54;47.27;101345.16;5099112;28;1094;-48
2023/01/09 03:46:46;;;;;;;;;;;;;;;17.46;48.41;101353.78;5099102;28;1057;-49
2023/01/09 03:49:12;;;;;;;;;;;;;;;17.15;47.55;101347.25;5099697;28;1045;-47
2023/01/09 03:51:38;;;;;;;;;;;;;;;17.83;47.83;101352.06;5099794;28;1127;-49
2023/01/09 03:54:03;;;;;;;;;;;;;;;17.53;48.19;101345.28;5098914;28;1130;-48
2023/01/09 03:56:29;;;;;;;;;;;;;;;17.24;48.23;101354.72;5098555;28;852;-49
2023/01/09 03:58:54;;;;;;;;;;;;;;;18.70;46.57;101354.25;5098643;28;1913;-47
2023/01/09 04:01:20;;;;;;;;;;;;;;;17.56;47.95;101353.03;5098610;28;1106;-49
2023/01/09 04:03:45;;;;;;;;;;;;;;;17.15;47.55;101358.22;5098958;28;1484;-51
2023/01/09 04:06:10;;;;;;;;;;;;;;;17.87;48.30;101354.00;5085947;28;1131;-47
2023/01/09 04:08:36;;;;;;;;;;;;;;;17.37;48.51;101355.38;5096174;28;2585;-47
2023/01/09 04:11:01;;;;;;;;;;;;;;;17.10;47.55;101348.84;5098593;28;1110;-51
2023/01/09 04:13:27;;;;;;;;;;;;;;;18.32;47.34;101354.47;5098890;28;1075;-50
2023/01/09 04:15:52;;;;;;;;;;;;;;;17.53;48.04;101351.63;5099060;28;1138;-51
2023/01/09 04:18:17;;;;;;;;;;;;;;;18.50;47.24;101357.81;5099284;28;1050;-53
2023/01/09 04:20:45;;;;;;;;;;;;;;;18.74;46.61;101350.69;5098219;28;1906;-53
2023/01/09 04:23:10;;;;;;;;;;;;;;;17.65;47.98;101356.91;5098480;28;1038;-52
2023/01/09 04:25:36;;;;;;;;;;;;;;;17.28;47.24;101352.31;5098576;28;1113;-51
2023/01/09 04:28:01;;;;;;;;;;;;;;;17.17;46.75;101345.06;5099209;28;1083;-46
2023/01/09 04:30:27;;;;;;;;;;;;;;;18.11;47.59;101343.38;5098450;28;1141;-49
2023/01/09 04:32:52;;;;;;;;;;;;;;;17.38;48.13;101333.13;5098436;28;982;-44
2023/01/09 04:35:18;;;;;;;;;;;;;;;17.06;47.68;101338.66;5098708;28;1241;-49
2023/01/09 04:37:43;;;;;;;;;;;;;;;18.03;47.70;101335.66;5089905;28;1808;-51
2023/01/09 04:40:09;;;;;;;;;;;;;;;17.19;48.42;101342.88;5097371;28;1972;-49
2023/01/09 04:42:35;;;;;;;;;;;;;;;17.00;47.26;101340.53;5097883;28;1260;-44
2023/01/09 04:45:00;;;;;;;;;;;;;;;18.22;47.39;101327.72;5097766;28;1134;-48
2023/01/09 04:47:26;;;;;;;;;;;;;;;17.33;48.45;101326.75;5098180;28;1273;-46
2023/01/09 04:49:51;;;;;;;;;;;;;;;18.10;47.75;101330.75;5098005;28;1082;-55
2023/01/09 04:52:17;;;;;;;;;;;;;;;18.36;47.40;101332.72;5098342;28;999;-55
2023/01/09 04:54:42;;;;;;;;;;;;;;;17.44;48.30;101328.47;5097251;28;995;-52
2023/01/09 04:57:08;;;;;;;;;;;;;;;17.18;47.48;101332.97;5098409;28;832;-52
2023/01/09 04:59:33;;;;;;;;;;;;;;;16.99;46.83;101343.56;5097808;28;1922;-53
2023/01/09 05:01:59;;;;;;;;;;;;;;;18.07;47.70;101339.50;5098071;28;1134;-51
2023/01/09 05:04:24;;;;;;;;;;;;;;;17.19;48.27;101337.38;5098171;28;1065;-51
2023/01/09 05:06:50;;;;;;;;;;;;;;;16.95;47.46;101337.75;5097050;28;2476;-55
2023/01/09 05:09:15;;;;;;;;;;;;;;;17.09;47.97;101333.47;5095745;28;1026;-54
2023/01/09 05:11:40;;;;;;;;;;;;;;;17.24;48.46;101332.75;5097814;28;1142;-50
2023/01/09 05:14:06;;;;;;;;;;;;;;;17.26;48.16;101332.47;5096594;28;1388;-48
2023/01/09 05:16:31;;;;;;;;;;;;;;;18.74;46.46;101333.34;5097466;28;1217;-54
2023/01/09 05:18:59;;;;;;;;;;;;;;;17.43;48.37;101327.66;5097750;28;1985;-53
2023/01/09 05:21:24;;;;;;;;;;;;;;;17.12;47.54;101326.59;5097853;28;1189;-50
2023/01/09 05:23:50;;;;;;;;;;;;;;;17.79;48.40;101338.00;5097674;28;1106;-53
2023/01/09 05:26:15;;;;;;;;;;;;;;;17.08;48.48;101331.81;5097253;28;1045;-53
2023/01/09 05:28:41;;;;;;;;;;;;;;;17.68;48.40;101334.38;5097332;28;975;-54
2023/01/09 05:31:06;;;;;;;;;;;;;;;17.48;48.53;101326.03;5096596;28;999;-53
2023/01/09 05:33:32;;;;;;;;;;;;;;;16.99;47.99;101327.91;5097454;28;898;-57
2023/01/09 05:35:57;;;;;;;;;;;;;;;16.79;47.19;101334.03;5096319;28;1130;-54
2023/01/09 05:38:23;;;;;;;;;;;;;;;18.00;47.65;101332.63;5090714;28;2622;-54
2023/01/09 05:40:48;;;;;;;;;;;;;;;17.13;48.43;101325.53;5097079;28;1942;-54
2023/01/09 05:43:14;;;;;;;;;;;;;;;17.98;47.79;101332.91;5096766;28;1072;-53
2023/01/09 05:45:39;;;;;;;;;;;;;;;18.17;47.70;101335.16;5096851;28;891;-55
2023/01/09 05:48:05;;;;;;;;;;;;;;;17.37;48.10;101331.44;5097419;28;1181;-56
2023/01/09 05:50:30;;;;;;;;;;;;;;;16.91;47.81;101347.59;5097386;28;1204;-53
2023/01/09 05:52:56;;;;;;;;;;;;;;;17.65;48.32;101345.09;5096984;28;1082;-52
2023/01/09 05:55:21;;;;;;;;;;;;;;;17.39;48.64;101337.53;5097259;28;1098;-56
2023/01/09 05:57:47;;;;;;;;;;;;;;;17.53;48.75;101334.28;5096935;28;847;-56
2023/01/09 06:00:12;;;;;;;;;;;;;;;18.92;46.35;101348.53;5096887;28;1961;-54
2023/01/09 06:02:38;;;;;;;;;;;;;;;17.56;48.16;101339.28;5096398;28;1118;-54
2023/01/09 06:05:03;;;;;;;;;;;;;;;17.34;48.94;101331.16;5096160;28;1098;-50
2023/01/09 06:07:29;;;;;;;;;;;;;;;17.65;48.57;101340.41;5089893;28;2281;-51
2023/01/09 06:09:54;;;;;;;;;;;;;;;17.16;48.30;101340.66;5096292;28;1158;-53
2023/01/09 06:12:20;;;;;;;;;;;;;;;18.77;46.62;101339.09;5096338;28;1082;-54
2023/01/09 06:14:45;;;;;;;;;;;;;;;17.51;48.27;101331.81;5096377;28;1118;-50
2023/01/09 06:17:11;;;;;;;;;;;;;;;17.09;47.92;101338.13;5096240;28;1124;-52
2023/01/09 06:19:36;;;;;;;;;;;;;;;18.43;47.19;101338.81;5095261;28;1978;-56
2023/01/09 06:22:01;;;;;;;;;;;;;;;17.38;48.61;101332.28;5095343;28;891;-55
2023/01/09 06:24:27;;;;;;;;;;;;;;;18.24;47.42;101331.06;5097034;28;1018;-55
2023/01/09 06:26:52;;;;;;;;;;;;;;;17.53;48.88;101339.78;5095889;28;1178;-55
2023/01/09 06:29:18;;;;;;;;;;;;;;;17.20;49.60;101339.03;5096029;28;1392;-55
2023/01/09 06:31:43;;;;;;;;;;;;;;;16.98;50.13;101330.91;5095920;28;1272;-51
2023/01/09 06:34:09;;;;;;;;;;;;;;;16.82;50.31;101335.44;5094839;28;961;-56
2023/01/09 06:36:34;;;;;;;;;;;;;;;16.67;50.74;101342.41;5094359;28;1400;-52
2023/01/09 06:39:00;;;;;;;;;;;;;;;16.48;51.18;101338.38;5091518;28;2521;-54
2023/01/09 06:41:25;;;;;;;;;;;;;;;16.37;51.15;101338.28;5078619;28;975;-54
2023/01/09 06:43:51;;;;;;;;;;;;;;;16.26;51.58;101336.53;5075672;28;1217;-53
2023/01/09 06:46:16;;;;;;;;;;;;;;;16.13;51.60;101332.28;5093714;28;914;-55
2023/01/09 06:48:42;;;;;;;;;;;;;;;16.01;51.88;101337.88;5095944;28;1003;-54
2023/01/09 06:51:07;;;;;;;;;;;;;;;15.94;52.07;101334.50;5095420;28;1027;-54
2023/01/09 06:53:33;;;;;;;;;;;;;;;15.86;52.08;101337.69;5095739;28;990;-54
2023/01/09 06:56:01;;;;;;;;;;;;;;;15.74;52.44;101338.63;5092108;28;1038;-54
2023/01/09 06:58:26;;;;;;;;;;;;;;;15.63;52.45;101336.81;5086351;28;836;-55
2023/01/09 07:00:52;;;;;;;;;;;;;;;15.56;52.64;101338.94;5081995;28;1984;-56
2023/01/09 07:03:19;;;;;;;;;;;;;;;16.22;51.22;101335.38;5087386;28;1304;-54
2023/01/09 07:05:44;;;;;;;;;;;;;;;16.94;49.38;101322.34;5084231;28;1216;-55
2023/01/09 07:08:10;;;;;;;;;;;;;;;16.13;51.43;101334.16;5087164;28;1904;-54
2023/01/09 07:10:35;;;;;;;;;;;;;;;15.87;52.11;101329.22;5087040;28;972;-54
2023/01/09 07:13:01;;;;;;;;;;;;;;;15.67;52.71;101346.19;5084573;28;1257;-50
2023/01/09 07:15:26;;;;;;;;;;;;;;;15.75;52.56;101325.72;5086188;28;1155;-54
2023/01/09 07:17:52;;;;;;;;;;;;;;;17.30;48.49;101325.38;5086176;28;1252;-54
2023/01/09 07:20:17;;;;;;;;;;;;;;;16.38;50.79;101328.97;5095301;28;1902;-55
2023/01/09 07:22:43;;;;;;;;;;;;;;;16.00;51.73;101333.47;5091654;28;1250;-57
2023/01/09 07:25:09;;;;;;;;;;;;;;;15.77;52.17;101339.19;5091506;28;1046;-54
2023/01/09 07:27:34;;;;;;;;;;;;;;;15.61;52.56;101333.50;5095010;28;1026;-56
2023/01/09 07:29:59;;;;;;;;;;;;;;;16.16;51.28;101328.16;5090329;28;1518;-51
2023/01/09 07:32:25;;;;;;;;;;;;;;;17.16;48.65;101326.91;5094178;28;1011;-48
2023/01/09 07:34:51;;;;;;;;;;;;;;;16.23;50.95;101328.81;5079766;28;1007;-48
2023/01/09 07:37:16;;;;;;;;;;;;;;;15.90;51.64;101327.88;5087567;28;1820;-51
2023/01/09 07:39:42;;;;;;;;;;;;;;;15.69;52.13;101326.75;5078811;28;1906;-49
2023/01/09 07:42:07;;;;;;;;;;;;;;;15.54;52.41;101327.38;5087921;28;1205;-49
2023/01/09 07:44:33;;;;;;;;;;;;;;;16.55;50.38;101325.28;5077760;28;1138;-50
2023/01/09 07:46:58;;;;;;;;;;;;;;;16.75;49.39;101327.41;5089185;28;1217;-47
2023/01/09 07:49:24;;;;;;;;;;;;;;;16.01;51.46;101318.69;5098749;28;1041;-50
2023/01/09 07:51:49;;;;;;;;;;;;;;;15.80;51.88;101327.75;5083911;28;1079;-46
2023/01/09 07:54:15;;;;;;;;;;;;;;;15.78;51.97;101319.75;5078737;28;1027;-44
2023/01/09 07:56:40;;;;;;;;;;;;;;;17.34;48.09;101317.44;5093737;28;1217;-47
2023/01/09 07:59:06;;;;;;;;;;;;;;;16.36;50.21;101311.94;5098551;28;2025;-50
2023/01/09 08:01:31;;;;;;;;;;;;;;;15.95;51.34;101314.22;5090356;28;1101;-52
2023/01/09 08:03:57;;;;;;;;;;;;;;;16.16;51.16;101306.22;5092452;28;1177;-48
2023/01/09 08:06:22;;;;;;;;;;;;;;;17.19;48.22;101298.91;5087085;28;1113;-46
2023/01/09 08:08:48;;;;;;;;;;;;;;;16.29;50.65;101302.25;5095008;28;2153;-46
2023/01/09 08:11:14;;;;;;;;;;;;;;;15.97;51.19;101312.06;5081225;28;1253;-50
2023/01/09 08:13:39;;;;;;;;;;;;;;;15.74;52.02;101311.19;5088732;28;1404;-52
2023/01/09 08:16:05;;;;;;;;;;;;;;;16.19;50.84;101308.47;5100637;28;1223;-48
2023/01/09 08:18:30;;;;;;;;;;;;;;;17.55;47.17;101313.69;5098074;28;1047;-50
2023/01/09 08:20:56;;;;;;;;;;;;;;;16.49;49.77;101304.38;5097631;28;1996;-50
2023/01/09 08:23:21;;;;;;;;;;;;;;;16.08;51.03;101302.84;5092600;28;1170;-51
2023/01/09 08:25:47;;;;;;;;;;;;;;;15.84;51.60;101304.22;5094500;28;1193;-50
2023/01/09 08:28:12;;;;;;;;;;;;;;;15.95;51.36;101303.25;5090604;28;1252;-52
2023/01/09 08:30:38;;;;;;;;;;;;;;;17.34;47.79;101304.50;5088809;28;1218;-50
2023/01/09 08:33:03;;;;;;;;;;;;;;;16.38;49.95;101293.31;5098238;28;1404;-50
2023/01/09 08:35:28;;;;;;;;;;;;;;;15.96;51.13;101304.91;5095992;28;1038;-48
2023/01/09 08:37:54;;;;;;;;;;;;;;;15.79;51.61;101307.72;5091299;28;1832;-45
2023/01/09 08:40:19;;;;;;;;;;;;;;;15.68;51.79;101300.41;5085873;28;1987;-47
2023/01/09 08:48:13;;;;;;;;;;;;;;;15.99;51.18;101290.69;5097941;28;986;-50
2023/01/09 08:50:38;;;;;;;;;;;;;;;15.79;51.51;101282.19;5084512;28;1247;-52
2023/01/09 08:53:04;;;;;;;;;;;;;;;15.65;52.06;101288.03;5096248;28;1522;-50
2023/01/09 08:55:29;;;;;;;;;;;;;;;16.58;49.57;101278.09;5090394;28;1272;-50
2023/01/09 08:57:55;;;;;;;;;;;;;;;17.12;48.18;101276.34;5084106;28;1210;-49
2023/01/09 09:00:21;;;;;;;;;;;;;;;16.24;50.18;101275.56;5088948;28;1934;-47
2023/01/09 09:02:56;;;;;;;;;;;;;;;15.89;51.14;101274.09;5090583;28;1241;-46
2023/01/09 09:05:22;;;;;;;;;;;;;;;15.74;51.66;101280.22;5086643;28;1300;-51
2023/01/09 09:07:48;;;;;;;;;;;;;;;17.29;47.80;101276.97;5091175;28;1879;-46
2023/01/09 09:10:15;;;;;;;;;;;;;;;16.64;49.11;101255.09;5093861;28;1194;-50
2023/01/09 09:12:40;;;;;;;;;;;;;;;16.12;50.62;101259.28;5093921;28;1284;-48
2023/01/09 09:15:12;;;;;;;;;;;;;;;15.84;51.44;101257.59;5084674;28;1174;-47
2023/01/09 09:17:39;;;;;;;;;;;;;;;15.66;51.56;101256.81;5097003;28;1037;-50
2023/01/09 09:20:05;;;;;;;;;;;;;;;15.58;51.85;101243.53;5085863;28;1978;-51
2023/01/09 09:22:30;;;;;;;;;;;;;;;17.14;48.14;101242.00;5094937;28;1214;-50
2023/01/09 09:24:56;;;;;;;;;;;;;;;17.04;48.18;101239.19;5086564;28;1308;-51
2023/01/09 09:27:21;;;;;;;;;;;;;;;16.28;50.35;101230.06;5091855;28;1272;-49
2023/01/09 09:29:46;;;;;;;;;;;;;;;15.96;51.06;101228.09;5085988;28;1234;-50
2023/01/09 09:32:12;;;;;;;;;;;;;;;15.79;51.35;101227.34;5080814;28;1123;-47
2023/01/09 09:34:38;;;;;;;;;;;;;;;15.73;51.63;101232.75;5094004;28;1106;-45
2023/01/09 09:37:03;;;;;;;;;;;;;;;17.35;47.49;101231.94;5087624;28;1952;-49
2023/01/09 09:39:29;;;;;;;;;;;;;;;16.56;49.34;101225.34;5092012;28;1968;-49
2023/01/09 09:45:03;;;;;;;;;;;;;;;15.82;51.16;101210.41;5094542;28;1143;-46
2023/01/09 09:47:48;;;;;;;;;;;;;;;15.64;51.85;101206.91;5086998;28;863;-47
2023/01/09 09:50:26;;;;;;;;;;;;;;;16.19;50.53;101209.69;5096184;28;1113;-49
2023/01/09 09:53:10;;;;;;;;;;;;;;;17.01;48.33;101201.25;5095610;28;1166;-50
2023/01/09 09:55:37;;;;;;;;;;;;;;;16.19;50.43;101199.53;5097067;28;1237;-50
2023/01/09 09:58:14;;;;;;;;;;;;;;;15.82;51.37;101207.66;5092900;28;1175;-48
2023/01/09 10:00:40;;;;;;;;;;;;;;;15.61;51.87;101209.31;5095690;28;1905;-47
2023/01/09 10:03:06;;;;;;;;;;;;;;;15.48;52.11;101200.41;5084024;28;1038;-50
2023/01/09 10:05:35;;;;;;;;;;;;;;;16.46;50.21;101198.66;5081605;28;1451;-49
2023/01/09 10:08:05;;;;;;;;;;;;;;;17.31;47.58;101181.34;5093793;28;2228;-47
2023/01/09 10:10:32;;;;;;;;;;;;;;;16.33;50.33;101175.22;5096442;28;1146;-48
2023/01/09 10:12:58;;;;;;;;;;;;;;;15.94;51.46;101185.59;5086994;28;1022;-49
2023/01/09 10:15:35;;;;;;;;;;;;;;;15.74;51.68;101193.28;5091550;28;1122;-49
2023/01/09 10:18:04;;;;;;;;;;;;;;;17.27;48.28;101182.97;5094937;28;1018;-48
2023/01/09 10:20:48;;;;;;;;;;;;;;;16.52;49.81;101175.66;5094827;28;1979;-47
2023/01/09 10:23:32;;;;;;;;;;;;;;;15.99;51.16;101172.75;5083198;28;1051;-49
2023/01/09 10:26:15;;;;;;;;;;;;;;;15.76;51.73;101168.38;5075998;28;967;-49
2023/01/09 10:28:46;;;;;;;;;;;;;;;17.36;47.94;101167.63;5090087;28;1051;-48
2023/01/09 10:31:30;;;;;;;;;;;;;;;16.50;49.80;101169.59;5086652;28;1159;-48
2023/01/09 10:34:14;;;;;;;;;;;;;;;16.04;51.18;101159.06;5075050;28;992;-48
2023/01/09 10:36:53;;;;;;;;;;;;;;;15.82;51.80;101152.81;5092374;28;1091;-48
2023/01/09 10:39:27;;;;;;;;;;;;;;;15.76;51.74;101156.56;5085272;28;1984;-51
2023/01/09 10:41:55;;;;;;;;;;;;;;;17.31;47.95;101144.78;5084883;28;1105;-49
2023/01/09 10:44:25;;;;;;;;;;;;;;;16.40;50.39;101144.81;5084234;28;1775;-51
2023/01/09 10:46:52;;;;;;;;;;;;;;;15.90;51.43;101135.91;5082802;28;1180;-51
2023/01/09 10:49:17;;;;;;;;;;;;;;;15.73;51.68;101139.53;5085463;28;1213;-46
2023/01/09 10:51:47;;;;;;;;;;;;;;;16.91;49.20;101139.69;5086252;28;1178;-46
2023/01/09 10:54:13;;;;;;;;;;;;;;;16.69;49.39;101127.97;5084528;28;1233;-46
2023/01/09 10:56:38;;;;;;;;;;;;;;;16.09;51.05;101141.84;5085765;28;1229;-46
2023/01/09 10:59:04;;;;;;;;;;;;;;;15.81;51.66;101131.97;5083855;28;1972;-48
2023/01/09 11:01:33;;;;;;;;;;;;;;;15.63;52.22;101120.25;5085038;28;1217;-47
2023/01/09 11:04:00;;;;;;;;;;;;;;;17.29;48.08;101125.81;5088696;28;1373;-47
2023/01/09 11:06:31;;;;;;;;;;;;;;;16.49;49.90;101125.94;5081215;28;1055;-47
2023/01/09 11:08:58;;;;;;;;;;;;;;;16.04;51.10;101109.69;5084484;28;2137;-49
2023/01/09 11:11:30;;;;;;;;;;;;;;;15.87;51.51;101114.47;5088010;28;926;-45
2023/01/09 11:14:03;;;;;;;;;;;;;;;15.83;51.78;101124.31;5076108;28;995;-46
2023/01/09 11:16:28;;;;;;;;;;;;;;;17.19;48.50;101117.53;5075662;28;1097;-47
2023/01/09 11:18:58;;;;;;;;;;;;;;;16.63;49.40;101112.56;5082492;28;1902;-46
2023/01/09 11:21:26;;;;;;;;;;;;;;;16.06;51.06;101098.44;5098370;28;1020;-43
2023/01/09 11:23:52;;;;;;;;;;;;;;;15.83;51.48;101102.38;5097714;28;1020;-47
2023/01/09 11:26:22;;;;;;;;;;;;;;;15.89;51.49;101112.28;5098763;28;1250;-47
2023/01/09 11:29:03;;;;;;;;;;;;;;;17.49;47.75;101118.72;5100117;28;1225;-46
2023/01/09 11:31:28;;;;;;;;;;;;;;;16.45;50.01;101100.91;5099921;28;1099;-46
2023/01/09 11:33:54;;;;;;;;;;;;;;;16.06;51.13;101102.03;5099122;28;1405;-46
2023/01/09 11:36:19;;;;;;;;;;;;;;;15.81;51.84;101110.88;5099302;28;1241;-49
2023/01/09 11:38:51;;;;;;;;;;;;;;;17.32;47.89;101106.03;5096599;28;1961;-46
2023/01/09 11:41:18;;;;;;;;;;;;;;;16.74;49.14;101092.31;5096798;28;1201;-48
2023/01/09 11:43:44;;;;;;;;;;;;;;;16.18;50.73;101087.31;5097748;28;1233;-44
2023/01/09 11:46:12;;;;;;;;;;;;;;;15.91;51.24;101089.00;5098115;28;1297;-49
2023/01/09 11:48:55;;;;;;;;;;;;;;;15.77;51.84;101079.53;5095987;28;1205;-51
2023/01/09 11:51:24;;;;;;;;;;;;;;;17.27;48.07;101081.28;5098809;28;1314;-49
2023/01/09 11:53:53;;;;;;;;;;;;;;;16.52;49.91;101081.47;5098258;28;1209;-47
2023/01/09 11:56:18;;;;;;;;;;;;;;;16.01;51.11;101082.78;5097891;28;1221;-49
2023/01/09 11:58:44;;;;;;;;;;;;;;;15.85;51.52;101079.09;5096993;28;1186;-49
2023/01/09 12:01:12;;;;;;;;;;;;;;;15.72;51.80;101080.34;5095632;28;1980;-50
2023/01/09 12:03:56;;;;;;;;;;;;;;;17.29;48.14;101079.06;5097956;28;1198;-49
2023/01/09 12:06:34;;;;;;;;;;;;;;;16.47;50.15;101081.47;5096469;28;1146;-49
2023/01/09 12:09:00;;;;;;;;;;;;;;;16.02;51.23;101067.97;5080155;28;2084;-51
2023/01/09 12:11:30;;;;;;;;;;;;;;;15.86;51.80;101077.16;5083844;28;1005;-50
2023/01/09 12:14:11;;;;;;;;;;;;;;;17.49;47.84;101082.97;5096592;28;1046;-49
2023/01/09 12:16:56;;;;;;;;;;;;;;;16.54;49.77;101062.84;5096677;28;1142;-50
2023/01/09 12:19:37;;;;;;;;;;;;;;;16.10;50.99;101065.84;5097686;28;1901;-51
2023/01/09 12:22:20;;;;;;;;;;;;;;;15.84;51.83;101065.66;5098168;28;1177;-50
2023/01/09 12:25:04;;;;;;;;;;;;;;;17.06;48.68;101064.72;5097780;28;891;-49
2023/01/09 12:27:35;;;;;;;;;;;;;;;16.75;49.31;101059.09;5098193;28;1076;-51
2023/01/09 12:30:03;;;;;;;;;;;;;;;16.16;50.80;101048.31;5095875;28;1019;-46
2023/01/09 12:32:49;;;;;;;;;;;;;;;15.90;51.47;101048.94;5098210;28;1106;-47
2023/01/09 12:35:21;;;;;;;;;;;;;;;16.55;50.11;101048.00;5097695;28;1393;-47
2023/01/09 12:38:01;;;;;;;;;;;;;;;17.00;48.57;101041.09;5089072;28;2419;-48
2023/01/09 12:40:37;;;;;;;;;;;;;;;16.18;50.82;101040.66;5097807;28;1913;-44
2023/01/09 12:43:06;;;;;;;;;;;;;;;15.91;51.73;101044.31;5096543;28;1214;-50
2023/01/09 12:45:31;;;;;;;;;;;;;;;15.72;51.89;101036.47;5098417;28;1146;-48
2023/01/09 12:47:59;;;;;;;;;;;;;;;16.73;49.83;101036.56;5097881;28;1111;-49
2023/01/09 12:50:27;;;;;;;;;;;;;;;16.76;49.23;101033.28;5097176;28;1024;-48
2023/01/09 12:53:02;;;;;;;;;;;;;;;16.13;50.97;101035.97;5097955;28;1129;-49
2023/01/09 12:55:29;;;;;;;;;;;;;;;15.92;51.69;101032.22;5098044;28;1113;-48
2023/01/09 12:57:55;;;;;;;;;;;;;;;17.48;47.61;101037.34;5096361;28;1145;-48
2023/01/09 13:00:22;;;;;;;;;;;;;;;16.51;50.21;101035.91;5095728;28;1905;-50